Pittsford, NY

4:42 PM EST on February 01, 2015 (GMT -0500)
Greater Rochester International | Change Station
CLOSE
Current Station
Airport
Location: Rochester,
Elevation: 554 ft
Nearby Weather Stations
Active Advisory: Winter Storm Warning

Elev 554 ft 43.12 °N, 77.68 °W | Updated 20 minutes ago

Snow
Snow
14 °F
Feels Like -1 °F
N
14
Wind Variable Wind from ENE

Today
High -- | Low -- °F
--% Chance of Precip.
Yesterday
High -- | Low -- °F
Precip. -- in
7:25 AM 5:22 PM
Waxing Gibbous, 96% visible
Pressure 30.15 in
Visibility 1.5 miles
Clouds Few 1600 ft
Mostly Cloudy 2200 ft
Overcast 3000 ft
Windchill -1 °F
Dew Point 8 °F
Humidity 77%
Rainfall 0.01 in
Snow Depth Not available.
UV 0 out of 12
Pollen .10 out of 12
Air Quality Not available.
Flu Activity Not available.
SPECI KROC 012122Z 07012KT 1 1/2SM -SN FEW016 BKN022 OVC030 M10/M13 A3015 RMK AO2 TWR VIS 2 P0000 T11001133

More Conditions Fewer Conditions

Pressure 30.15 in
Visibility 1.5 miles
Clouds Few 1600 ft
Mostly Cloudy 2200 ft
Overcast 3000 ft
Windchill -1 °F
Dew Point 8 °F
Humidity 77%
Rainfall 0.01 in
Snow Depth Not available.
UV 0 out of 12
Pollen .10 out of 12
Air Quality Not available.
Flu Activity Not available.
SPECI KROC 012122Z 07012KT 1 1/2SM -SN FEW016 BKN022 OVC030 M10/M13 A3015 RMK AO2 TWR VIS 2 P0000 T11001133

More Conditions Fewer Conditions

10-Day Weather Forecast

Almanac

Astronomy

Feb. 01, 2015 Rise Set
Actual Time
Civil Twilight
Nautical Twilight
Astronomical Twilight
Moon
Length of Visible Light
Length of Day
Tomorrow will be .
, % of the Moon is Illuminated

Today's Extremes

State Highs State Lows

Community

WunderPhotos

Upload Photos

1,792,555 photos uploaded!

WunderBlogs® & News

Nearby

Air Quality

  Air Quality AQ Index Pollutant
Not available.

Snow Depth

Station Depth Elevation

Earthquake Activity

City Distance Mag. Time & Date
Minimum magnitude displayed is 2.5.

Coastal Water Temperatures

Place Temperature

Nearby Weather Stations